Time;durP1;ratioP1;P1;durP2;ratioP2;P2;SDS_P1;SDS_P2;PMS_P1;PMS_P2;Temp;Humidity;BMP_temperature;BMP_pressure;BME280_temperature;BME280_humidity;BME280_pressure;Samples;Min_cycle;Max_cycle;Signal;HPM_P1;HPM_P2
2022/04/14 00:01:37;;;;;;;81.93;43.80;;;7.70;99.90;;;;;;5055486;28;20482;-80
2022/04/14 00:04:03;;;;;;;97.13;49.13;;;7.50;99.90;;;;;;5055624;28;20060;-80
2022/04/14 00:06:29;;;;;;;81.30;39.83;;;7.50;99.90;;;;;;5054177;28;20079;-78
2022/04/14 00:08:55;;;;;;;74.35;39.78;;;7.40;99.90;;;;;;5054009;28;20167;-78
2022/04/14 00:11:21;;;;;;;65.50;37.30;;;7.40;99.90;;;;;;5055178;28;20104;-79
2022/04/14 00:13:46;;;;;;;71.97;39.00;;;7.20;99.90;;;;;;5055030;28;20100;-78
2022/04/14 00:16:12;;;;;;;73.50;39.40;;;7.20;99.90;;;;;;5054003;28;20079;-81
2022/04/14 00:18:38;;;;;;;62.88;36.17;;;7.20;99.90;;;;;;5051497;28;20102;-79
2022/04/14 00:21:04;;;;;;;56.25;30.85;;;7.10;99.90;;;;;;5054685;28;20071;-79
2022/04/14 00:23:30;;;;;;;56.25;28.45;;;7.10;99.90;;;;;;5053950;28;20025;-77
2022/04/14 00:25:55;;;;;;;59.95;32.30;;;7.10;99.90;;;;;;5054983;28;20450;-80
2022/04/14 00:28:21;;;;;;;55.80;28.27;;;7.00;99.90;;;;;;5054871;28;20025;-78
2022/04/14 00:30:47;;;;;;;52.17;25.90;;;6.90;99.90;;;;;;5054788;28;20070;-78
2022/04/14 00:33:13;;;;;;;54.13;25.95;;;6.90;99.90;;;;;;5054870;28;20147;-81
2022/04/14 00:35:39;;;;;;;59.05;29.20;;;6.90;99.90;;;;;;5053506;28;20025;-80
2022/04/14 00:38:04;;;;;;;49.35;24.48;;;6.90;99.90;;;;;;5055136;28;20075;-78
2022/04/14 00:40:30;;;;;;;45.90;23.20;;;6.90;99.90;;;;;;5053425;28;20037;-78
2022/04/14 00:42:56;;;;;;;39.88;22.15;;;6.90;99.90;;;;;;5054784;28;20028;-80
2022/04/14 00:45:21;;;;;;;42.85;20.88;;;6.90;99.90;;;;;;5054515;28;20411;-78
2022/04/14 00:47:48;;;;;;;41.20;21.52;;;6.90;99.90;;;;;;5054709;28;20139;-79
2022/04/14 00:50:14;;;;;;;53.05;26.60;;;6.90;99.90;;;;;;5054592;28;20033;-80
2022/04/14 00:52:44;;;;;;;42.40;20.67;;;6.80;99.90;;;;;;5054488;28;20036;-80
2022/04/14 00:55:10;;;;;;;45.38;21.38;;;6.80;99.90;;;;;;5054792;28;20017;-80
2022/04/14 00:57:36;;;;;;;44.75;19.40;;;6.80;99.90;;;;;;5054442;28;20100;-82
2022/04/14 01:00:02;;;;;;;37.65;18.83;;;6.80;99.90;;;;;;5054482;28;20076;-79
2022/04/14 01:02:28;;;;;;;39.05;18.42;;;6.80;99.90;;;;;;5054683;28;20085;-80
2022/04/14 01:04:54;;;;;;;37.88;18.58;;;6.80;99.90;;;;;;5053049;28;20065;-79
2022/04/14 01:07:20;;;;;;;39.22;19.55;;;6.70;99.90;;;;;;5053264;28;20040;-78
2022/04/14 01:09:46;;;;;;;33.22;18.00;;;6.60;99.90;;;;;;5052732;28;20021;-80
2022/04/14 01:12:13;;;;;;;41.80;18.23;;;6.60;99.90;;;;;;5053987;28;20016;-80
2022/04/14 01:14:39;;;;;;;46.08;22.10;;;6.50;99.90;;;;;;5050348;28;20067;-80
2022/04/14 01:17:09;;;;;;;46.58;21.80;;;6.50;99.90;;;;;;5052801;28;20041;-79
2022/04/14 01:19:36;;;;;;;44.55;21.85;;;6.50;99.90;;;;;;5052748;28;20025;-79
2022/04/14 01:22:09;;;;;;;48.92;22.45;;;6.40;99.90;;;;;;5052658;28;20017;-79
2022/04/14 01:24:35;;;;;;;52.88;23.17;;;6.40;99.90;;;;;;5054409;28;20418;-80
2022/04/14 01:27:01;;;;;;;46.22;23.38;;;6.40;99.90;;;;;;5052675;28;20044;-81
2022/04/14 01:29:28;;;;;;;47.80;22.45;;;6.40;99.90;;;;;;5053844;28;20452;-80
2022/04/14 01:31:56;;;;;;;46.42;21.10;;;6.40;99.90;;;;;;5052661;28;20090;-78
2022/04/14 01:34:22;;;;;;;47.05;22.40;;;6.30;99.90;;;;;;5052916;28;20405;-80
2022/04/14 01:36:48;;;;;;;43.50;21.70;;;6.30;99.90;;;;;;5052386;28;20507;-79
2022/04/14 01:39:14;;;;;;;46.20;22.52;;;6.30;99.90;;;;;;5053398;28;20108;-78
2022/04/14 01:41:41;;;;;;;54.75;24.42;;;6.30;99.90;;;;;;5053823;28;20027;-79
2022/04/14 01:44:08;;;;;;;49.50;25.50;;;6.20;99.90;;;;;;5053342;28;20025;-78
2022/04/14 01:46:34;;;;;;;50.20;25.00;;;6.30;99.90;;;;;;5053273;28;20029;-81
2022/04/14 01:49:00;;;;;;;50.47;22.17;;;6.30;99.90;;;;;;5053713;28;20032;-79
2022/04/14 01:51:27;;;;;;;47.17;22.88;;;6.20;99.90;;;;;;5052219;28;20021;-77
2022/04/14 01:53:53;;;;;;;45.67;22.27;;;6.30;99.90;;;;;;5052124;28;20115;-79
2022/04/14 01:56:19;;;;;;;48.40;22.95;;;6.30;99.90;;;;;;5053304;28;20103;-78
2022/04/14 01:58:45;;;;;;;48.63;22.63;;;6.30;99.90;;;;;;5051713;28;20136;-80
2022/04/14 02:01:11;;;;;;;58.30;23.88;;;6.30;99.90;;;;;;5052002;28;20033;-78
2022/04/14 02:03:37;;;;;;;67.10;25.05;;;6.30;99.90;;;;;;5053348;28;20025;-78
2022/04/14 02:06:03;;;;;;;52.10;22.27;;;6.30;99.90;;;;;;5053081;28;20114;-79
2022/04/14 02:08:29;;;;;;;50.08;20.63;;;6.20;99.90;;;;;;5052971;28;20025;-78
2022/04/14 02:10:55;;;;;;;34.95;18.13;;;6.10;99.90;;;;;;5051658;28;20478;-78
2022/04/14 02:13:21;;;;;;;35.92;16.75;;;6.10;99.90;;;;;;5051923;28;20032;-81
2022/04/14 02:15:46;;;;;;;35.83;16.88;;;6.10;99.90;;;;;;5053064;28;20021;-79
2022/04/14 02:18:12;;;;;;;54.90;18.73;;;6.10;99.90;;;;;;5052562;28;20025;-81
2022/04/14 02:20:38;;;;;;;47.80;17.83;;;6.10;99.90;;;;;;5051498;28;20049;-78
2022/04/14 02:23:04;;;;;;;38.55;16.88;;;6.00;99.90;;;;;;5050961;28;20029;-79
2022/04/14 02:25:29;;;;;;;38.28;15.57;;;6.10;99.90;;;;;;5051505;28;20166;-80
2022/04/14 02:27:55;;;;;;;36.55;15.77;;;6.10;99.90;;;;;;5052443;28;20025;-80
2022/04/14 02:30:21;;;;;;;30.08;14.65;;;6.00;99.90;;;;;;5051640;28;20450;-78
2022/04/14 02:32:47;;;;;;;27.45;14.13;;;6.00;99.90;;;;;;5052727;28;20100;-79
2022/04/14 02:35:14;;;;;;;25.30;12.55;;;5.90;99.90;;;;;;5052034;28;20120;-80
2022/04/14 02:37:39;;;;;;;25.17;13.95;;;5.80;99.90;;;;;;5052890;28;20040;-78
2022/04/14 02:40:06;;;;;;;28.50;12.48;;;5.80;99.90;;;;;;5052931;28;20025;-78
2022/04/14 02:42:32;;;;;;;28.48;12.57;;;5.70;99.90;;;;;;5053033;28;20039;-79
2022/04/14 02:44:57;;;;;;;28.38;14.05;;;5.70;99.90;;;;;;5053388;28;20021;-78
2022/04/14 02:47:23;;;;;;;41.97;16.25;;;5.80;99.90;;;;;;5052351;28;20024;-79
2022/04/14 02:49:49;;;;;;;31.60;15.00;;;5.70;99.90;;;;;;5052048;28;20053;-78
2022/04/14 02:52:14;;;;;;;26.95;13.88;;;5.60;99.90;;;;;;5052213;28;20029;-80
2022/04/14 02:54:40;;;;;;;36.75;15.30;;;5.60;99.90;;;;;;5053740;28;20079;-80
2022/04/14 02:57:07;;;;;;;28.30;14.70;;;5.60;99.90;;;;;;5053856;28;20353;-80
2022/04/14 02:59:34;;;;;;;33.40;14.57;;;5.60;99.90;;;;;;5053445;28;20073;-79
2022/04/14 03:02:00;;;;;;;24.42;13.20;;;5.50;99.90;;;;;;5053547;28;20029;-78
2022/04/14 03:04:29;;;;;;;27.30;13.48;;;5.40;99.90;;;;;;5052671;28;20396;-79
2022/04/14 03:06:55;;;;;;;21.77;10.32;;;5.40;99.90;;;;;;5053545;28;20017;-80
2022/04/14 03:09:21;;;;;;;19.02;10.00;;;5.40;99.90;;;;;;5053482;28;20025;-81
2022/04/14 03:11:47;;;;;;;19.85;10.02;;;5.30;99.90;;;;;;5053639;28;20025;-80
2022/04/14 03:14:12;;;;;;;16.60;9.70;;;5.30;99.90;;;;;;5052203;28;20039;-81
2022/04/14 03:16:38;;;;;;;22.65;10.38;;;5.30;99.90;;;;;;5054000;28;20029;-79
2022/04/14 03:19:04;;;;;;;31.05;11.43;;;5.20;99.90;;;;;;5052274;28;20464;-80
2022/04/14 03:21:30;;;;;;;27.48;14.10;;;5.20;99.90;;;;;;5052058;28;20115;-80
2022/04/14 03:23:56;;;;;;;33.20;16.27;;;5.20;99.90;;;;;;5053530;28;20171;-81
2022/04/14 03:26:21;;;;;;;35.00;15.00;;;5.10;99.90;;;;;;5052414;28;20028;-78
2022/04/14 03:28:47;;;;;;;33.58;16.35;;;5.10;99.90;;;;;;5053101;28;20043;-80
2022/04/14 03:31:13;;;;;;;40.13;16.23;;;5.10;99.90;;;;;;5052619;28;20029;-79
2022/04/14 03:33:38;;;;;;;35.63;15.65;;;5.00;99.90;;;;;;5055993;28;20539;-80
2022/04/14 03:36:04;;;;;;;30.20;15.35;;;5.00;99.90;;;;;;5056019;28;20117;-78
2022/04/14 03:38:31;;;;;;;38.92;15.35;;;4.90;99.90;;;;;;5057429;28;20029;-80
2022/04/14 03:40:59;;;;;;;34.88;14.57;;;4.90;99.90;;;;;;5055834;28;20036;-80
2022/04/14 03:43:25;;;;;;;31.88;14.85;;;4.90;99.90;;;;;;5057609;28;20107;-80
2022/04/14 03:45:51;;;;;;;31.52;14.65;;;4.90;99.90;;;;;;5057110;28;20411;-78
2022/04/14 03:48:17;;;;;;;31.35;16.90;;;4.90;99.90;;;;;;5057342;28;20052;-78
2022/04/14 03:50:43;;;;;;;39.38;17.88;;;4.90;99.90;;;;;;5056822;28;20412;-80
2022/04/14 03:53:09;;;;;;;40.67;17.70;;;4.80;99.90;;;;;;5055880;28;20036;-80
2022/04/14 03:55:34;;;;;;;32.53;14.45;;;4.80;99.90;;;;;;5055971;28;20387;-80
2022/04/14 03:58:00;;;;;;;31.98;15.10;;;4.70;99.90;;;;;;5056968;28;20410;-81
2022/04/14 04:00:26;;;;;;;31.48;15.52;;;4.70;99.90;;;;;;5056556;28;20049;-78
2022/04/14 04:02:52;;;;;;;27.05;14.20;;;4.60;99.90;;;;;;5057038;28;20021;-81
2022/04/14 04:05:17;;;;;;;28.90;14.95;;;4.70;99.90;;;;;;5056720;28;20029;-78
2022/04/14 04:07:43;;;;;;;31.40;15.55;;;4.70;99.90;;;;;;5056869;28;20028;-80
2022/04/14 04:10:09;;;;;;;35.25;15.55;;;4.70;99.90;;;;;;5055488;28;20365;-80
2022/04/14 04:12:35;;;;;;;30.05;13.90;;;4.70;99.90;;;;;;5055618;28;20048;-79
2022/04/14 04:15:00;;;;;;;29.70;15.30;;;4.70;99.90;;;;;;5055484;28;20036;-79
2022/04/14 04:17:26;;;;;;;22.60;12.98;;;4.70;99.90;;;;;;5055339;28;20025;-81
2022/04/14 04:19:52;;;;;;;54.22;23.92;;;4.70;99.90;;;;;;5055784;28;20029;-81
2022/04/14 04:22:17;;;;;;;43.33;21.42;;;4.80;99.90;;;;;;5054973;28;20032;-80
2022/04/14 04:24:43;;;;;;;51.90;25.50;;;4.80;99.90;;;;;;5055262;28;20028;-80
2022/04/14 04:27:09;;;;;;;56.97;28.17;;;4.80;99.90;;;;;;5055216;28;20379;-78
2022/04/14 04:29:35;;;;;;;49.85;24.13;;;4.90;99.90;;;;;;5056988;28;20055;-78
2022/04/14 04:32:00;;;;;;;44.92;17.55;;;4.90;99.90;;;;;;5055021;28;20036;-78
2022/04/14 04:34:26;;;;;;;37.58;16.17;;;5.00;99.90;;;;;;5055088;28;20053;-79
2022/04/14 04:36:52;;;;;;;35.75;16.58;;;5.10;99.90;;;;;;5056713;28;20032;-78
2022/04/14 04:39:18;;;;;;;44.63;16.52;;;5.10;99.90;;;;;;5056019;28;20057;-80
2022/04/14 04:41:44;;;;;;;46.95;20.60;;;5.10;99.90;;;;;;5056026;28;20065;-78
2022/04/14 04:44:10;;;;;;;56.03;24.85;;;5.10;99.90;;;;;;5055506;28;20494;-78
2022/04/14 04:46:35;;;;;;;72.80;28.48;;;5.10;99.90;;;;;;5055995;28;20036;-81
2022/04/14 04:49:02;;;;;;;54.00;24.73;;;5.20;99.90;;;;;;5055880;28;20029;-80
2022/04/14 04:51:28;;;;;;;61.60;24.83;;;5.30;99.90;;;;;;5056179;28;20028;-79
2022/04/14 04:53:54;;;;;;;51.47;21.60;;;5.50;99.90;;;;;;5054631;28;20108;-81
2022/04/14 04:56:20;;;;;;;43.20;18.73;;;5.60;99.90;;;;;;5056052;28;20033;-78
2022/04/14 04:58:46;;;;;;;34.28;16.40;;;5.80;99.90;;;;;;5054328;28;20048;-78
2022/04/14 05:01:12;;;;;;;36.88;15.73;;;5.90;99.90;;;;;;5055502;28;20029;-77
2022/04/14 05:03:38;;;;;;;43.42;15.48;;;5.90;99.90;;;;;;5054605;28;20491;-80
2022/04/14 05:06:05;;;;;;;59.17;19.95;;;6.10;99.90;;;;;;5054396;28;20094;-79
2022/04/14 05:08:31;;;;;;;42.60;20.08;;;6.10;99.90;;;;;;5055839;28;20463;-79
2022/04/14 05:10:57;;;;;;;50.75;20.33;;;6.10;99.90;;;;;;5055514;28;20078;-79
2022/04/14 05:13:22;;;;;;;57.83;23.70;;;6.20;99.90;;;;;;5053517;28;20104;-79
2022/04/14 05:15:48;;;;;;;62.50;23.10;;;6.30;99.90;;;;;;5055976;28;20028;-78
2022/04/14 05:18:14;;;;;;;50.53;23.30;;;6.40;99.90;;;;;;5055587;28;20024;-80
2022/04/14 05:20:42;;;;;;;53.63;29.13;;;6.50;99.90;;;;;;5055082;28;20033;-80
2022/04/14 05:23:09;;;;;;;62.40;32.47;;;6.60;99.90;;;;;;5054220;28;20052;-80
2022/04/14 05:25:35;;;;;;;45.03;23.25;;;6.80;99.90;;;;;;5055931;28;20043;-81
2022/04/14 05:28:01;;;;;;;40.03;22.48;;;6.80;99.90;;;;;;5053932;28;20422;-79
2022/04/14 05:30:26;;;;;;;42.28;21.40;;;7.00;99.90;;;;;;5054230;28;20032;-78
2022/04/14 05:32:52;;;;;;;45.53;22.02;;;7.10;99.90;;;;;;5052489;28;20032;-80
2022/04/14 05:35:18;;;;;;;42.72;22.58;;;7.30;99.90;;;;;;5054379;28;20029;-81
2022/04/14 05:37:44;;;;;;;41.75;22.13;;;7.40;99.90;;;;;;5054705;28;20084;-81
2022/04/14 05:40:09;;;;;;;48.40;25.10;;;7.50;99.90;;;;;;5053301;28;20032;-79
2022/04/14 05:42:35;;;;;;;50.85;25.50;;;7.70;99.90;;;;;;5054920;28;20029;-80
2022/04/14 05:45:01;;;;;;;50.45;26.15;;;7.90;99.90;;;;;;5053531;28;20029;-83
2022/04/14 05:47:27;;;;;;;50.70;25.85;;;8.00;99.90;;;;;;5054021;28;20115;-78
2022/04/14 05:49:53;;;;;;;64.47;34.95;;;8.10;99.90;;;;;;5054850;28;20404;-81
2022/04/14 05:52:20;;;;;;;55.53;31.48;;;8.10;99.90;;;;;;5053673;28;20040;-81
2022/04/14 05:54:46;;;;;;;64.82;32.90;;;8.30;99.90;;;;;;5054686;28;20024;-78
2022/04/14 05:57:13;;;;;;;68.68;35.20;;;8.40;99.90;;;;;;5053395;28;20032;-79
2022/04/14 05:59:39;;;;;;;68.90;35.83;;;8.50;99.90;;;;;;5054583;28;20045;-77
2022/04/14 06:02:05;;;;;;;69.00;36.75;;;8.50;99.90;;;;;;5053200;28;20396;-79
2022/04/14 06:04:31;;;;;;;78.60;37.35;;;8.60;99.90;;;;;;5054757;28;20025;-79
2022/04/14 06:06:57;;;;;;;69.70;35.28;;;8.80;99.90;;;;;;5054080;28;20029;-78
2022/04/14 06:09:22;;;;;;;75.03;38.83;;;8.90;99.90;;;;;;5054323;28;20031;-80
2022/04/14 06:11:48;;;;;;;76.22;38.33;;;9.10;99.90;;;;;;5053378;28;20029;-79
2022/04/14 06:14:14;;;;;;;75.00;39.08;;;9.20;99.90;;;;;;5054479;28;20021;-81
2022/04/14 06:16:39;;;;;;;86.93;40.97;;;9.40;99.90;;;;;;5054072;28;20029;-79
2022/04/14 06:19:05;;;;;;;83.13;38.78;;;9.60;99.90;;;;;;5054367;28;20029;-80
2022/04/14 06:21:31;;;;;;;89.57;41.42;;;9.70;99.90;;;;;;5054187;28;20037;-80
2022/04/14 06:23:57;;;;;;;88.75;40.17;;;9.80;98.80;;;;;;5054224;28;20443;-80
2022/04/14 06:26:23;;;;;;;74.90;38.72;;;10.00;99.40;;;;;;5054542;28;20082;-77
2022/04/14 06:28:49;;;;;;;76.93;37.95;;;10.30;99.10;;;;;;5054384;28;20029;-80
2022/04/14 06:31:14;;;;;;;76.07;37.85;;;10.50;98.00;;;;;;5054072;28;20084;-81
2022/04/14 06:33:41;;;;;;;84.10;41.78;;;10.60;95.50;;;;;;5054215;28;20048;-80
2022/04/14 06:36:07;;;;;;;85.65;40.50;;;10.50;96.70;;;;;;5053991;28;20033;-81
2022/04/14 06:38:32;;;;;;;79.20;41.58;;;10.70;95.50;;;;;;5052730;28;20027;-81
2022/04/14 06:40:58;;;;;;;78.22;39.30;;;10.80;95.90;;;;;;5053929;28;20069;-78
2022/04/14 06:43:27;;;;;;;78.85;40.78;;;11.10;97.20;;;;;;5054069;28;20028;-79
2022/04/14 06:45:52;;;;;;;71.63;36.75;;;11.40;96.00;;;;;;5052527;28;20025;-81
2022/04/14 06:48:18;;;;;;;77.88;40.35;;;11.70;87.10;;;;;;5053561;28;20095;-81
2022/04/14 06:50:44;;;;;;;76.53;41.42;;;11.90;85.40;;;;;;5052481;28;20125;-82
2022/04/14 06:53:10;;;;;;;82.55;41.63;;;12.00;84.50;;;;;;5052310;28;20067;-79
2022/04/14 06:55:37;;;;;;;85.75;43.55;;;12.30;85.30;;;;;;5053962;28;20032;-79
2022/04/14 06:58:03;;;;;;;89.20;44.15;;;12.50;84.40;;;;;;5053871;28;20049;-80
2022/04/14 07:00:30;;;;;;;82.45;43.53;;;12.60;81.00;;;;;;5053864;28;20106;-79
2022/04/14 07:02:57;;;;;;;78.43;43.17;;;12.90;83.20;;;;;;5052493;28;20032;-81
2022/04/14 07:05:23;;;;;;;90.85;45.42;;;13.10;79.00;;;;;;5053734;28;20028;-78
2022/04/14 07:07:49;;;;;;;86.90;45.55;;;13.20;75.40;;;;;;5053280;28;20064;-79
2022/04/14 07:10:15;;;;;;;89.55;45.92;;;13.50;75.30;;;;;;5053724;28;20052;-81
2022/04/14 07:12:42;;;;;;;86.55;46.70;;;13.80;75.00;;;;;;5053584;28;20108;-80
2022/04/14 07:15:10;;;;;;;94.63;50.10;;;14.00;69.50;;;;;;5053595;28;20025;-81
2022/04/14 07:17:36;;;;;;;93.60;48.88;;;14.20;71.60;;;;;;5053661;28;20025;-79
2022/04/14 07:20:03;;;;;;;94.90;49.90;;;14.40;70.80;;;;;;5053500;28;20455;-81
2022/04/14 07:22:31;;;;;;;81.30;43.53;;;14.60;71.30;;;;;;5053496;28;20025;-81
2022/04/14 07:24:59;;;;;;;95.90;43.28;;;14.70;65.30;;;;;;5052357;28;20021;-80
2022/04/14 07:27:25;;;;;;;84.05;40.40;;;14.80;65.80;;;;;;5053014;28;20116;-78
2022/04/14 07:29:51;;;;;;;81.78;36.80;;;15.10;67.50;;;;;;5053279;28;20491;-78
2022/04/14 07:32:17;;;;;;;82.60;33.60;;;15.20;64.50;;;;;;5052252;28;20036;-78
2022/04/14 07:34:43;;;;;;;86.90;32.53;;;15.40;64.00;;;;;;5053608;28;20032;-78
2022/04/14 07:37:08;;;;;;;91.40;28.02;;;15.40;63.20;;;;;;5051678;28;20028;-80
2022/04/14 07:39:34;;;;;;;99.75;32.90;;;15.70;60.40;;;;;;5052645;28;20036;-79
2022/04/14 07:42:00;;;;;;;93.72;36.38;;;15.80;60.60;;;;;;5052521;28;20037;-77
2022/04/14 07:44:25;;;;;;;87.50;29.58;;;16.00;62.30;;;;;;5051930;28;20035;-78
2022/04/14 07:46:51;;;;;;;80.00;32.30;;;16.10;59.00;;;;;;5053049;28;20029;-79
2022/04/14 07:49:17;;;;;;;84.00;30.17;;;16.50;58.50;;;;;;5051988;28;20395;-79
2022/04/14 07:51:42;;;;;;;72.00;29.08;;;17.00;55.80;;;;;;5051938;28;20029;-77
2022/04/14 07:54:09;;;;;;;79.47;27.98;;;17.40;53.60;;;;;;5051874;28;20071;-79
2022/04/14 07:56:34;;;;;;;79.32;30.70;;;17.20;49.80;;;;;;5053444;28;20083;-77
2022/04/14 07:59:00;;;;;;;56.53;28.75;;;17.50;54.10;;;;;;5053325;28;20477;-79
2022/04/14 08:01:28;;;;;;;30.95;18.48;;;17.80;49.00;;;;;;5053004;28;20475;-78
2022/04/14 08:03:54;;;;;;;38.30;20.77;;;18.10;45.60;;;;;;5051918;28;20029;-78
2022/04/14 08:06:20;;;;;;;33.40;16.15;;;18.20;45.70;;;;;;5052931;28;20040;-79
2022/04/14 08:08:46;;;;;;;20.52;11.45;;;18.20;44.40;;;;;;5052808;28;20108;-78
2022/04/14 08:11:11;;;;;;;21.83;11.85;;;18.50;40.70;;;;;;5053060;28;20052;-77
2022/04/14 08:13:38;;;;;;;26.40;12.10;;;18.90;41.90;;;;;;5052925;28;20025;-77
2022/04/14 08:16:06;;;;;;;23.38;12.63;;;19.10;38.70;;;;;;5051891;28;20436;-77
2022/04/14 08:18:36;;;;;;;30.10;12.00;;;19.20;38.20;;;;;;5051709;28;20032;-78
2022/04/14 08:21:03;;;;;;;31.42;12.38;;;19.10;36.40;;;;;;5054525;28;20123;-78
2022/04/14 08:23:30;;;;;;;27.50;13.68;;;18.90;37.00;;;;;;5056570;28;20128;-78
2022/04/14 08:25:56;;;;;;;24.42;10.68;;;19.10;38.00;;;;;;5056638;28;20028;-77
2022/04/14 08:28:22;;;;;;;16.35;8.02;;;19.30;37.50;;;;;;5056627;28;20072;-77
2022/04/14 08:30:47;;;;;;;15.73;7.82;;;19.40;32.20;;;;;;5055163;28;20087;-78
2022/04/14 08:33:16;;;;;;;12.27;8.23;;;19.50;34.50;;;;;;5054931;28;20074;-78
2022/04/14 08:35:44;;;;;;;13.43;8.88;;;20.00;34.10;;;;;;5055137;28;20032;-83
2022/04/14 08:38:10;;;;;;;13.90;6.15;;;19.90;32.50;;;;;;5054661;28;20025;-76
2022/04/14 08:40:41;;;;;;;12.30;6.38;;;19.70;35.70;;;;;;5055648;28;20087;-80
2022/04/14 08:43:09;;;;;;;15.80;6.63;;;20.10;33.90;;;;;;5055118;28;20430;-78
2022/04/14 08:45:42;;;;;;;12.13;5.63;;;20.50;33.80;;;;;;5055779;28;20029;-81
2022/04/14 08:48:08;;;;;;;9.70;6.55;;;20.70;32.80;;;;;;5055675;28;20028;-79
2022/04/14 08:50:34;;;;;;;10.82;6.70;;;20.80;34.20;;;;;;5054574;28;20037;-79
2022/04/14 08:53:04;;;;;;;8.73;4.90;;;20.80;33.10;;;;;;5055759;28;20062;-79
2022/04/14 08:55:30;;;;;;;13.05;6.30;;;20.90;29.20;;;;;;5056240;28;20029;-79
2022/04/14 08:57:56;;;;;;;9.98;5.43;;;21.20;29.80;;;;;;5056215;28;20029;-80
2022/04/14 09:00:22;;;;;;;9.15;5.07;;;21.20;29.20;;;;;;5054444;28;20049;-79
2022/04/14 09:02:51;;;;;;;9.35;5.65;;;21.30;30.70;;;;;;5055244;28;20032;-79
2022/04/14 09:05:17;;;;;;;9.18;5.28;;;21.60;27.50;;;;;;5054788;28;20025;-80
2022/04/14 09:07:52;;;;;;;12.75;5.28;;;21.30;28.30;;;;;;5055127;28;20031;-79
2022/04/14 09:10:19;;;;;;;13.40;4.75;;;21.70;27.00;;;;;;5055537;28;20021;-77
2022/04/14 09:12:46;;;;;;;9.38;4.25;;;21.30;26.90;;;;;;5055861;28;20103;-78
2022/04/14 09:15:12;;;;;;;11.10;3.53;;;21.60;25.60;;;;;;5054391;28;20021;-79
2022/04/14 09:17:37;;;;;;;10.52;4.63;;;21.40;26.40;;;;;;5056018;28;20029;-80
2022/04/14 09:20:31;;;;;;;9.77;4.63;;;21.80;28.20;;;;;;5054461;28;20116;-80
2022/04/14 09:23:11;;;;;;;10.48;5.20;;;22.20;25.30;;;;;;5055862;28;20043;-80
2022/04/14 09:25:37;;;;;;;6.75;4.25;;;22.30;25.20;;;;;;5055415;28;20032;-80
2022/04/14 09:28:13;;;;;;;14.98;5.18;;;22.20;24.60;;;;;;5055158;28;20025;-78
2022/04/14 09:30:41;;;;;;;8.35;4.72;;;22.40;27.10;;;;;;5053923;28;20036;-79
2022/04/14 09:33:16;;;;;;;11.68;5.63;;;22.10;25.90;;;;;;5055237;28;20029;-79
2022/04/14 09:35:42;;;;;;;10.25;4.80;;;22.30;26.20;;;;;;5053751;28;20463;-78
2022/04/14 09:38:13;;;;;;;10.85;4.00;;;21.30;25.80;;;;;;5054096;28;20475;-79
2022/04/14 09:40:39;;;;;;;9.57;5.32;;;21.50;25.90;;;;;;5053765;28;20078;-78
2022/04/14 09:43:05;;;;;;;6.22;4.88;;;22.40;28.00;;;;;;5055116;28;20041;-79
2022/04/14 09:45:33;;;;;;;10.48;5.03;;;22.80;25.30;;;;;;5055198;28;20586;-79
2022/04/14 09:48:05;;;;;;;9.70;4.90;;;23.20;25.00;;;;;;5054946;28;20530;-79
2022/04/14 09:50:44;;;;;;;6.05;4.57;;;23.00;25.80;;;;;;5055373;28;20070;-80
2022/04/14 09:53:11;;;;;;;12.63;5.15;;;23.60;24.70;;;;;;5054640;28;20883;-79
2022/04/14 09:55:39;;;;;;;9.65;4.93;;;23.10;26.40;;;;;;5055037;28;20029;-78
2022/04/14 09:58:17;;;;;;;7.80;4.15;;;23.40;25.80;;;;;;5054599;28;20104;-79
2022/04/14 10:00:59;;;;;;;9.30;4.72;;;22.60;25.30;;;;;;5053583;28;20438;-79
2022/04/14 10:03:30;;;;;;;12.18;6.88;;;23.10;27.80;;;;;;5053531;28;20083;-78
2022/04/14 10:06:05;;;;;;;11.30;5.23;;;23.00;24.70;;;;;;5054685;28;20044;-78
2022/04/14 10:08:48;;;;;;;8.05;4.13;;;23.70;21.70;;;;;;5053307;28;20082;-78
2022/04/14 10:11:13;;;;;;;10.65;5.03;;;23.70;24.10;;;;;;5054355;28;20482;-79
2022/04/14 10:13:41;;;;;;;6.20;4.85;;;23.60;23.20;;;;;;5054737;28;20468;-79
2022/04/14 10:16:07;;;;;;;11.68;4.90;;;23.50;25.30;;;;;;5054433;28;20115;-79
2022/04/14 10:18:33;;;;;;;16.67;5.90;;;23.50;24.10;;;;;;5054561;28;20021;-79
2022/04/14 10:20:59;;;;;;;9.20;4.47;;;23.20;21.80;;;;;;5054233;28;20033;-78
2022/04/14 10:23:27;;;;;;;13.15;5.05;;;23.70;22.90;;;;;;5054797;28;20051;-78
2022/04/14 10:25:54;;;;;;;7.03;5.32;;;23.50;24.10;;;;;;5053023;28;20032;-79
2022/04/14 10:28:21;;;;;;;9.02;4.93;;;23.60;21.70;;;;;;5054165;28;20024;-78
2022/04/14 10:30:49;;;;;;;6.65;5.00;;;23.60;20.70;;;;;;5053101;28;20460;-79
2022/04/14 10:33:17;;;;;;;8.50;5.20;;;23.30;22.80;;;;;;5054211;28;20091;-78
2022/04/14 10:35:43;;;;;;;12.65;4.95;;;23.70;21.40;;;;;;5054077;28;20483;-78
2022/04/14 10:38:09;;;;;;;7.50;4.95;;;;;;;;;;5052860;28;20036;-77
2022/04/14 10:40:36;;;;;;;7.85;4.65;;;24.10;19.90;;;;;;5052861;28;20036;-78
2022/04/14 10:43:06;;;;;;;6.45;5.07;;;;;;;;;;5051945;28;20116;-78
2022/04/14 10:45:46;;;;;;;6.90;4.80;;;;;;;;;;5054112;28;20061;-78
2022/04/14 10:48:32;;;;;;;12.30;4.88;;;24.60;23.90;;;;;;5052872;28;20025;-78
2022/04/14 10:51:20;;;;;;;9.30;4.78;;;24.70;20.60;;;;;;5053614;28;20033;-79
2022/04/14 10:53:52;;;;;;;6.07;4.70;;;;;;;;;;5053907;28;20025;-78
2022/04/14 10:56:36;;;;;;;7.85;5.13;;;24.60;20.50;;;;;;5054022;28;20523;-78
2022/04/14 10:59:06;;;;;;;10.73;5.40;;;25.10;22.30;;;;;;5052277;28;20041;-79
2022/04/14 11:01:50;;;;;;;6.63;4.93;;;25.30;21.30;;;;;;5053696;28;20488;-79
2022/04/14 11:04:27;;;;;;;7.00;5.10;;;24.90;20.30;;;;;;5052611;28;20041;-79
2022/04/14 11:07:15;;;;;;;7.47;5.15;;;24.40;19.80;;;;;;5054079;28;20052;-78
2022/04/14 11:09:45;;;;;;;6.10;5.07;;;25.20;22.40;;;;;;5052525;28;20112;-78
2022/04/14 11:12:27;;;;;;;8.70;5.30;;;25.40;20.00;;;;;;5053808;28;20472;-78
2022/04/14 11:15:00;;;;;;;8.57;4.60;;;25.20;19.80;;;;;;5052338;28;20025;-77
2022/04/14 11:17:37;;;;;;;11.35;4.93;;;24.70;22.50;;;;;;5053717;28;20115;-78
2022/04/14 11:20:30;;;;;;;7.20;5.10;;;25.50;21.60;;;;;;5052323;28;20482;-78
2022/04/14 11:23:15;;;;;;;7.85;5.20;;;25.70;21.10;;;;;;5053432;28;20064;-78
2022/04/14 11:28:27;;;;;;;8.73;5.45;;;24.30;19.90;;;;;;5053494;28;20472;-78
2022/04/14 11:30:58;;;;;;;6.10;5.03;;;24.50;18.70;;;;;;5052059;28;20025;-77
2022/04/14 11:33:29;;;;;;;6.70;4.90;;;25.20;19.80;;;;;;5053787;28;20021;-79
2022/04/14 11:36:10;;;;;;;9.88;5.28;;;25.50;19.30;;;;;;5053137;28;20021;-79
2022/04/14 11:39:04;;;;;;;10.90;6.53;;;25.20;17.30;;;;;;5053318;28;20520;-79
2022/04/14 11:41:49;;;;;;;9.85;5.03;;;25.10;20.70;;;;;;5052366;28;20130;-77
2022/04/14 11:44:15;;;;;;;9.98;5.30;;;25.10;19.20;;;;;;5052210;28;20090;-79
2022/04/14 11:46:43;;;;;;;11.82;5.70;;;24.80;18.30;;;;;;5053248;28;20057;-79
2022/04/14 11:49:10;;;;;;;7.10;5.65;;;25.40;19.00;;;;;;5052034;28;20044;-78
2022/04/14 11:51:45;;;;;;;7.63;5.13;;;25.30;20.20;;;;;;5053486;28;20036;-79
2022/04/14 11:54:11;;;;;;;10.30;5.28;;;;;;;;;;5054615;28;20029;-80
2022/04/14 11:56:38;;;;;;;9.70;5.20;;;;;;;;;;5057150;28;20017;-79
2022/04/14 11:59:08;;;;;;;6.00;5.30;;;;;;;;;;5056704;28;20053;-78
2022/04/14 12:01:34;;;;;;;12.18;5.30;;;;;;;;;;5057216;28;20041;-78
2022/04/14 12:04:01;;;;;;;11.38;5.22;;;;;;;;;;5055741;28;20029;-79
2022/04/14 12:06:27;;;;;;;16.85;5.82;;;;;;;;;;5055571;28;20032;-77
2022/04/14 12:08:58;;;;;;;10.02;5.07;;;25.40;19.40;;;;;;5055729;28;20032;-79
2022/04/14 12:11:29;;;;;;;7.90;5.78;;;24.90;20.30;;;;;;5057053;28;20025;-79
2022/04/14 12:13:55;;;;;;;6.78;5.50;;;;;;;;;;5055311;28;20471;-79
2022/04/14 12:16:20;;;;;;;10.07;5.53;;;25.50;20.20;;;;;;5056906;28;20039;-77
2022/04/14 12:18:51;;;;;;;14.32;4.93;;;25.60;19.80;;;;;;5056425;28;20025;-79
2022/04/14 12:21:27;;;;;;;9.88;5.10;;;25.80;21.20;;;;;;5055176;28;20360;-77
2022/04/14 12:23:54;;;;;;;8.00;4.70;;;25.80;17.70;;;;;;5055332;28;20036;-77
2022/04/14 12:26:22;;;;;;;10.68;5.28;;;25.60;17.70;;;;;;5056992;28;20037;-77
2022/04/14 12:28:48;;;;;;;5.78;4.53;;;25.70;19.60;;;;;;5055045;28;20028;-77
2022/04/14 12:31:20;;;;;;;10.43;5.72;;;25.00;18.80;;;;;;5056775;28;20036;-78
2022/04/14 12:33:57;;;;;;;5.85;4.55;;;;;;;;;;5056443;28;20060;-78
2022/04/14 12:36:36;;;;;;;6.60;5.15;;;25.40;17.20;;;;;;5055198;28;20025;-78
2022/04/14 12:39:06;;;;;;;7.38;5.47;;;;;;;;;;5056425;28;20033;-78
2022/04/14 12:41:36;;;;;;;7.95;4.68;;;;;;;;;;5056162;28;20042;-77
2022/04/14 12:44:03;;;;;;;8.73;4.80;;;;;;;;;;5056286;28;20100;-79
2022/04/14 12:46:37;;;;;;;6.85;4.60;;;;;;;;;;5056073;28;20562;-77
2022/04/14 12:49:10;;;;;;;8.65;4.60;;;;;;;;;;5054758;28;20021;-77